createdAt,value
2022-08-07T00:00:26.218Z,101302.50
2022-08-07T00:02:53.729Z,101296.34
2022-08-07T00:05:23.771Z,101303.63
2022-08-07T00:07:58.491Z,101300.72
2022-08-07T00:10:30.545Z,101298.50
2022-08-07T00:13:09.730Z,101293.50
2022-08-07T00:15:51.192Z,101299.06
2022-08-07T00:18:24.426Z,101303.81
2022-08-07T00:21:01.366Z,101306.28
2022-08-07T00:23:31.679Z,101294.09
2022-08-07T00:26:13.300Z,101294.59
2022-08-07T00:28:56.489Z,101283.66
2022-08-07T00:31:26.008Z,101290.09
2022-08-07T00:34:08.476Z,101285.69
2022-08-07T00:36:42.577Z,101290.00
2022-08-07T00:39:16.099Z,101299.44
2022-08-07T00:42:01.827Z,101293.81
2022-08-07T00:44:33.189Z,101292.81
2022-08-07T00:47:01.609Z,101283.56
2022-08-07T00:50:21.252Z,101288.97
2022-08-07T00:52:17.613Z,101289.03
2022-08-07T00:54:53.976Z,101287.63
2022-08-07T00:57:25.816Z,101286.94
2022-08-07T00:59:54.013Z,101291.16
2022-08-07T01:02:28.569Z,101279.75
2022-08-07T01:04:58.370Z,101289.50
2022-08-07T01:07:29.241Z,101281.41
2022-08-07T01:10:06.090Z,101280.44
2022-08-07T01:12:53.125Z,101287.22
2022-08-07T01:15:36.089Z,101285.81
2022-08-07T01:18:10.645Z,101288.44
2022-08-07T01:20:58.434Z,101287.63
2022-08-07T01:23:38.078Z,101286.56
2022-08-07T01:26:12.046Z,101287.84
2022-08-07T01:28:46.177Z,101285.50
2022-08-07T01:31:18.117Z,101287.16
2022-08-07T01:33:56.108Z,101290.88
2022-08-07T01:36:33.394Z,101295.72
2022-08-07T01:39:01.443Z,101298.88
2022-08-07T01:41:37.023Z,101290.94
2022-08-07T01:44:06.006Z,101292.47
2022-08-07T01:46:33.241Z,101287.69
2022-08-07T01:49:00.186Z,101294.41
2022-08-07T01:52:01.294Z,101289.50
2022-08-07T01:54:21.859Z,101290.25
2022-08-07T01:57:27.946Z,101285.19
2022-08-07T02:00:13.024Z,101277.94
2022-08-07T02:03:22.047Z,101272.13
2022-08-07T02:06:01.196Z,101275.47
2022-08-07T02:08:30.956Z,101285.03
2022-08-07T02:11:00.117Z,101274.34
2022-08-07T02:14:00.802Z,101277.41
2022-08-07T02:16:19.946Z,101271.19
2022-08-07T02:18:56.443Z,101273.50
2022-08-07T02:21:24.916Z,101268.97
2022-08-07T02:23:53.271Z,101260.44
2022-08-07T02:26:33.885Z,101264.09
2022-08-07T02:29:05.117Z,101266.41
2022-08-07T02:31:41.248Z,101266.41
2022-08-07T02:34:11.542Z,101261.41
2022-08-07T02:36:45.982Z,101255.91
2022-08-07T02:39:17.095Z,101254.94
2022-08-07T02:42:03.496Z,101254.06
2022-08-07T02:44:42.266Z,101253.53
2022-08-07T02:47:19.240Z,101251.13
2022-08-07T02:49:58.045Z,101248.31
2022-08-07T02:52:48.652Z,101238.94
2022-08-07T02:56:02.990Z,101236.53
2022-08-07T02:58:21.490Z,101231.56
2022-08-07T03:00:52.688Z,101239.97
2022-08-07T03:03:22.805Z,101245.78
2022-08-07T03:05:53.592Z,101248.19
2022-08-07T03:08:26.815Z,101238.91
2022-08-07T03:10:57.545Z,101249.41
2022-08-07T03:13:25.431Z,101250.09
2022-08-07T03:15:58.337Z,101245.94
2022-08-07T03:18:34.337Z,101239.94
2022-08-07T03:21:08.588Z,101233.41
2022-08-07T03:24:20.524Z,101242.56
2022-08-07T03:26:31.887Z,101238.84
2022-08-07T03:29:03.129Z,101235.63
2022-08-07T03:31:43.274Z,101240.06
2022-08-07T03:34:18.214Z,101240.91
2022-08-07T03:36:46.106Z,101246.22
2022-08-07T03:39:17.623Z,101241.19
2022-08-07T03:42:08.097Z,101234.38
2022-08-07T03:44:36.880Z,101245.97
2022-08-07T03:47:13.248Z,101244.59
2022-08-07T03:49:52.166Z,101239.94
2022-08-07T03:52:26.228Z,101244.25
2022-08-07T03:55:06.260Z,101243.16
2022-08-07T03:58:32.483Z,101245.91
2022-08-07T04:00:29.243Z,101246.88
2022-08-07T04:02:59.539Z,101249.59
2022-08-07T04:05:40.322Z,101259.34
2022-08-07T04:08:16.224Z,101251.13
2022-08-07T04:10:53.931Z,101249.81
2022-08-07T04:13:27.648Z,101254.19
2022-08-07T04:15:55.071Z,101258.22
2022-08-07T04:18:57.335Z,101261.03
2022-08-07T04:21:09.148Z,101251.03
2022-08-07T04:23:43.399Z,101259.25
2022-08-07T04:26:24.076Z,101263.03
2022-08-07T04:28:55.411Z,101251.34
2022-08-07T04:31:39.043Z,101257.69
2022-08-07T04:34:16.881Z,101265.53
2022-08-07T04:36:45.365Z,101260.47
2022-08-07T04:39:16.124Z,101261.56
2022-08-07T04:41:50.327Z,101270.31
2022-08-07T04:44:18.849Z,101271.78
2022-08-07T04:47:23.638Z,101272.34
2022-08-07T04:50:14.300Z,101270.28
2022-08-07T04:52:50.942Z,101279.59
2022-08-07T04:58:07.348Z,101278.78
2022-08-07T04:59:09.130Z,101285.00
2022-08-07T05:01:56.700Z,101289.56
2022-08-07T05:04:50.123Z,101283.44
2022-08-07T05:07:36.577Z,101291.34
2022-08-07T05:10:14.337Z,101286.59
2022-08-07T05:12:53.733Z,101297.88
2022-08-07T05:15:27.307Z,101288.66
2022-08-07T05:18:01.396Z,101287.38
2022-08-07T05:20:38.258Z,101290.09
2022-08-07T05:23:15.584Z,101290.31
2022-08-07T05:26:13.071Z,101290.81
2022-08-07T05:28:33.690Z,101300.09
2022-08-07T05:31:01.537Z,101308.28
2022-08-07T05:33:35.478Z,101305.78
2022-08-07T05:36:07.736Z,101311.41
2022-08-07T05:38:59.485Z,101317.50
2022-08-07T05:42:00.294Z,101324.88
2022-08-07T05:44:29.160Z,101315.13
2022-08-07T05:46:58.227Z,101322.38
2022-08-07T05:49:27.714Z,101314.81
2022-08-07T05:52:08.400Z,101320.25
2022-08-07T05:54:44.556Z,101325.41
2022-08-07T05:57:22.151Z,101327.69
2022-08-07T05:59:58.007Z,101329.19
2022-08-07T06:02:29.677Z,101336.06
2022-08-07T06:05:03.984Z,101337.44
2022-08-07T06:08:14.034Z,101338.66
2022-08-07T06:10:20.939Z,101337.16
2022-08-07T06:12:49.935Z,101333.59
2022-08-07T06:15:19.885Z,101339.47
2022-08-07T06:17:53.527Z,101331.84
2022-08-07T06:20:25.544Z,101330.56
2022-08-07T06:23:46.680Z,101331.72
2022-08-07T06:26:00.075Z,101341.03
2022-08-07T06:28:28.567Z,101348.19
2022-08-07T06:30:58.126Z,101338.72
2022-08-07T06:33:26.522Z,101336.63
2022-08-07T06:36:12.991Z,101339.50
2022-08-07T06:38:58.439Z,101335.13
2022-08-07T06:42:02.440Z,101335.91
2022-08-07T06:44:33.953Z,101334.78
2022-08-07T06:47:12.360Z,101334.19
2022-08-07T06:49:51.049Z,101330.75
2022-08-07T06:52:31.705Z,101323.34
2022-08-07T06:55:53.646Z,101337.28
2022-08-07T06:58:16.663Z,101342.88
2022-08-07T07:00:53.009Z,101333.56
2022-08-07T07:03:26.459Z,101340.00
2022-08-07T07:06:11.360Z,101337.16
2022-08-07T07:08:39.639Z,101345.19
2022-08-07T07:12:08.161Z,101339.13
2022-08-07T07:14:02.485Z,101343.03
2022-08-07T07:16:45.140Z,101342.50
2022-08-07T07:19:57.993Z,101343.88
2022-08-07T07:22:39.865Z,101342.03
2022-08-07T07:25:13.947Z,101332.53
2022-08-07T07:28:03.159Z,101337.19
2022-08-07T07:30:40.019Z,101330.00
2022-08-07T07:33:12.024Z,101333.16
2022-08-07T07:35:54.678Z,101324.44
2022-08-07T07:38:35.807Z,101327.69
2022-08-07T07:41:08.946Z,101319.59
2022-08-07T07:43:47.936Z,101320.25
2022-08-07T07:46:36.752Z,101321.09
2022-08-07T07:50:33.818Z,101323.56
2022-08-07T07:52:12.791Z,101323.41
2022-08-07T07:54:50.871Z,101314.22
2022-08-07T07:57:52.133Z,101311.06
2022-08-07T08:00:18.298Z,101302.13
2022-08-07T08:03:16.362Z,101309.19
2022-08-07T08:05:54.152Z,101308.94
2022-08-07T08:08:35.497Z,101302.47
2022-08-07T08:11:16.383Z,101304.63
2022-08-07T08:13:53.695Z,101302.31
2022-08-07T08:16:29.659Z,101306.19
2022-08-07T08:18:58.673Z,101303.56
2022-08-07T08:22:07.882Z,101303.50
2022-08-07T08:25:09.396Z,101307.31
2022-08-07T08:27:56.617Z,101301.28
2022-08-07T08:30:29.272Z,101309.41
2022-08-07T08:33:03.158Z,101307.94
2022-08-07T08:35:39.617Z,101302.91
2022-08-07T08:38:17.316Z,101311.97
2022-08-07T08:41:23.183Z,101307.91
2022-08-07T08:44:19.090Z,101300.38
2022-08-07T08:47:11.218Z,101293.44
2022-08-07T08:50:11.081Z,101300.34
2022-08-07T08:52:53.942Z,101307.25
2022-08-07T08:55:58.489Z,101289.16
2022-08-07T08:58:57.191Z,101286.25
2022-08-07T09:01:29.976Z,101286.56
2022-08-07T09:04:43.639Z,101291.72
2022-08-07T09:07:57.716Z,101280.16
2022-08-07T09:10:47.415Z,101281.91
2022-08-07T09:13:53.598Z,101284.66
2022-08-07T09:16:52.303Z,101276.22
2022-08-07T09:20:00.506Z,101276.84
2022-08-07T09:24:32.441Z,101279.97
2022-08-07T09:25:54.723Z,101270.06
2022-08-07T09:30:04.214Z,101271.00
2022-08-07T09:31:50.718Z,101273.41
2022-08-07T09:36:05.426Z,101269.28
2022-08-07T09:38:14.092Z,101257.34
2022-08-07T09:41:11.999Z,101261.03
2022-08-07T09:44:30.125Z,101250.63
2022-08-07T09:47:51.179Z,101241.53
2022-08-07T09:50:41.415Z,101237.44
2022-08-07T09:53:12.943Z,101234.16
2022-08-07T09:56:13.694Z,101221.16
2022-08-07T09:59:14.902Z,101209.50
2022-08-07T10:02:13.695Z,101211.00
2022-08-07T10:05:12.745Z,101195.53
2022-08-07T10:08:21.783Z,101207.47
2022-08-07T10:12:01.779Z,101190.13
2022-08-07T10:14:55.191Z,101200.28
2022-08-07T10:18:06.367Z,101193.41
2022-08-07T10:21:14.923Z,101176.88
2022-08-07T10:24:10.049Z,101169.88
2022-08-07T10:27:10.527Z,101158.09
2022-08-07T10:29:53.196Z,101154.47
2022-08-07T10:33:00.201Z,101137.34
2022-08-07T10:36:10.842Z,101135.53
2022-08-07T10:39:04.434Z,101125.72
2022-08-07T10:41:56.775Z,101129.78
2022-08-07T10:45:19.398Z,101125.44
2022-08-07T10:48:12.246Z,101120.94
2022-08-07T10:50:50.831Z,101115.09
2022-08-07T10:53:44.878Z,101113.81
2022-08-07T10:56:44.097Z,101111.94
2022-08-07T10:59:52.714Z,101115.63
2022-08-07T11:02:59.977Z,101111.84
2022-08-07T11:05:59.355Z,101101.16
2022-08-07T11:08:54.214Z,101106.59
2022-08-07T11:11:30.913Z,101104.69
2022-08-07T11:14:43.826Z,101085.63
2022-08-07T11:17:43.304Z,101092.94
2022-08-07T11:20:24.539Z,101091.53
2022-08-07T11:23:30.764Z,101088.97
2022-08-07T11:26:33.827Z,101072.00
2022-08-07T11:29:41.883Z,101079.81
2022-08-07T11:32:16.610Z,101074.09
2022-08-07T11:35:09.405Z,101070.66
2022-08-07T11:38:10.253Z,101072.59
2022-08-07T11:40:58.943Z,101064.69
2022-08-07T11:44:12.186Z,101056.94
2022-08-07T11:47:07.715Z,101059.81
2022-08-07T11:50:25.496Z,101059.19
2022-08-07T11:52:40.195Z,101055.91
2022-08-07T11:56:13.954Z,101070.78
2022-08-07T11:58:33.421Z,101059.63
2022-08-07T12:01:20.236Z,101061.31
2022-08-07T12:04:17.267Z,101064.16
2022-08-07T12:07:00.322Z,101055.94
2022-08-07T12:09:40.048Z,101052.88
2022-08-07T12:12:12.018Z,101042.34
2022-08-07T12:15:01.447Z,101050.19
2022-08-07T12:17:39.529Z,101057.81
2022-08-07T12:20:30.117Z,101047.09
2022-08-07T12:24:07.615Z,101035.94
2022-08-07T12:26:46.137Z,101033.06
2022-08-07T12:29:38.639Z,101049.16
2022-08-07T12:32:30.203Z,101042.56
2022-08-07T12:35:02.891Z,101041.31
2022-08-07T12:38:10.383Z,101051.22
2022-08-07T12:40:47.962Z,101030.19
2022-08-07T12:44:02.923Z,101028.94
2022-08-07T12:46:34.495Z,101019.66
2022-08-07T12:49:39.719Z,101020.66
2022-08-07T12:52:17.943Z,101042.72
2022-08-07T12:55:05.144Z,101037.19
2022-08-07T12:57:39.276Z,101029.56
2022-08-07T13:01:07.765Z,101024.03
2022-08-07T13:04:35.192Z,101025.63
2022-08-07T13:08:11.496Z,101023.78
2022-08-07T13:10:54.472Z,101021.34
2022-08-07T13:13:49.539Z,101014.69
2022-08-07T13:16:36.757Z,101025.22
2022-08-07T13:19:50.360Z,101015.56
2022-08-07T13:22:32.219Z,101018.03
2022-08-07T13:25:24.274Z,101009.78
2022-08-07T13:28:13.339Z,100999.47
2022-08-07T13:30:53.134Z,101000.75
2022-08-07T13:34:31.338Z,100992.66
2022-08-07T13:36:51.488Z,100988.97
2022-08-07T13:40:34.368Z,100992.03
2022-08-07T13:42:26.669Z,100993.94
2022-08-07T13:45:20.864Z,100993.69
2022-08-07T13:48:07.689Z,100987.88
2022-08-07T13:50:44.959Z,100984.81
2022-08-07T13:53:23.855Z,100982.72
2022-08-07T13:55:54.565Z,100976.53
2022-08-07T13:58:56.697Z,100979.44
2022-08-07T14:01:27.544Z,100982.97
2022-08-07T14:04:15.847Z,100978.88
2022-08-07T14:06:50.200Z,100982.38
2022-08-07T14:10:12.265Z,100971.88
2022-08-07T14:12:58.642Z,100975.56
2022-08-07T14:15:43.164Z,100968.16
2022-08-07T14:18:29.920Z,100954.59
2022-08-07T14:22:03.921Z,100961.78
2022-08-07T14:24:50.050Z,100956.41
2022-08-07T14:30:16.607Z,100951.47
2022-08-07T14:33:04.682Z,100951.03
2022-08-07T14:38:31.350Z,100948.63
2022-08-07T14:41:12.424Z,100944.66
2022-08-07T14:43:57.180Z,100941.53
2022-08-07T14:46:32.002Z,100941.53
2022-08-07T14:49:56.150Z,100933.69
2022-08-07T14:52:04.820Z,100939.91
2022-08-07T14:54:42.937Z,100925.50
2022-08-07T14:57:19.393Z,100938.28
2022-08-07T15:02:37.316Z,100927.53
2022-08-07T15:05:20.343Z,100922.53
2022-08-07T15:07:56.019Z,100927.97
2022-08-07T15:10:30.078Z,100921.94
2022-08-07T15:13:06.196Z,100920.66
2022-08-07T15:15:43.020Z,100931.59
2022-08-07T15:18:28.578Z,100926.00
2022-08-07T15:21:58.804Z,100922.50
2022-08-07T15:25:16.235Z,100908.75
2022-08-07T15:27:15.552Z,100912.69
2022-08-07T15:32:39.656Z,100908.56
2022-08-07T15:35:16.700Z,100917.63
2022-08-07T15:38:17.457Z,100908.19
2022-08-07T15:40:37.909Z,100910.28
2022-08-07T15:43:53.767Z,100896.69
2022-08-07T15:49:17.357Z,100899.31
2022-08-07T15:54:39.404Z,100896.59
2022-08-07T15:57:40.171Z,100892.25
2022-08-07T15:59:59.515Z,100897.00
2022-08-07T16:02:41.149Z,100895.56
2022-08-07T16:05:18.366Z,100902.56
2022-08-07T16:08:30.359Z,100894.91
2022-08-07T16:11:27.241Z,100896.38
2022-08-07T16:14:02.819Z,100884.06
2022-08-07T16:17:03.288Z,100884.22
2022-08-07T16:19:59.120Z,100880.91
2022-08-07T16:23:05.496Z,100884.16
2022-08-07T16:26:00.431Z,100881.13
2022-08-07T16:30:06.406Z,100885.28
2022-08-07T16:32:25.489Z,100887.13
2022-08-07T16:35:51.455Z,100886.91
2022-08-07T16:38:59.972Z,100884.06
2022-08-07T16:42:01.560Z,100879.75
2022-08-07T16:45:24.567Z,100887.38
2022-08-07T16:48:13.629Z,100891.94
2022-08-07T16:51:52.041Z,100887.19
2022-08-07T16:54:33.398Z,100879.16
2022-08-07T16:57:28.837Z,100881.66
2022-08-07T17:00:30.163Z,100875.84
2022-08-07T17:03:58.493Z,100885.13
2022-08-07T17:06:57.995Z,100872.59
2022-08-07T17:10:07.048Z,100877.13
2022-08-07T17:12:52.998Z,100881.09
2022-08-07T17:16:03.302Z,100877.00
2022-08-07T17:18:51.719Z,100871.19
2022-08-07T17:21:50.652Z,100879.22
2022-08-07T17:24:38.424Z,100884.00
2022-08-07T17:27:19.661Z,100881.94
2022-08-07T17:30:15.818Z,100890.16
2022-08-07T17:34:09.247Z,100882.75
2022-08-07T17:36:20.728Z,100887.50
2022-08-07T17:39:57.884Z,100880.50
2022-08-07T17:42:58.094Z,100893.88
2022-08-07T17:45:39.010Z,100886.84
2022-08-07T17:48:31.083Z,100893.03
2022-08-07T17:51:23.082Z,100887.91
2022-08-07T17:54:39.704Z,100889.56
2022-08-07T17:57:58.679Z,100894.75
2022-08-07T18:00:34.509Z,100895.97
2022-08-07T18:04:04.110Z,100906.06
2022-08-07T18:06:38.624Z,100900.69
2022-08-07T18:09:08.615Z,100911.19
2022-08-07T18:12:16.203Z,100912.44
2022-08-07T18:14:46.242Z,100914.91
2022-08-07T18:18:36.667Z,100917.38
2022-08-07T18:21:09.922Z,100915.53
2022-08-07T18:23:50.832Z,100916.97
2022-08-07T18:27:17.438Z,100918.41
2022-08-07T18:30:06.867Z,100919.25
2022-08-07T18:33:12.161Z,100925.00
2022-08-07T18:36:03.331Z,100925.81
2022-08-07T18:38:58.182Z,100921.03
2022-08-07T18:41:57.939Z,100923.09
2022-08-07T18:45:40.124Z,100925.34
2022-08-07T18:50:04.674Z,100929.00
2022-08-07T18:52:37.946Z,100932.09
2022-08-07T18:54:51.007Z,100939.47
2022-08-07T18:57:59.592Z,100931.47
2022-08-07T19:01:03.568Z,100941.31
2022-08-07T19:04:09.929Z,100946.41
2022-08-07T19:06:57.761Z,100942.28
2022-08-07T19:10:14.808Z,100955.03
2022-08-07T19:12:58.121Z,100946.97
2022-08-07T19:16:04.462Z,100958.91
2022-08-07T19:19:13.216Z,100969.53
2022-08-07T19:22:07.133Z,100969.25
2022-08-07T19:24:46.224Z,100979.09
2022-08-07T19:28:57.546Z,100982.34
2022-08-07T19:30:57.313Z,100979.91
2022-08-07T19:33:10.206Z,100989.91
2022-08-07T19:35:42.645Z,100998.91
2022-08-07T19:38:16.966Z,100999.50
2022-08-07T19:40:49.705Z,101005.88
2022-08-07T19:43:43.661Z,101008.72
2022-08-07T19:46:17.944Z,101008.09
2022-08-07T19:48:53.520Z,101012.78
2022-08-07T19:51:50.994Z,101023.84
2022-08-07T19:54:34.442Z,101014.22
2022-08-07T19:58:02.865Z,101018.28
2022-08-07T19:59:59.883Z,101016.19
2022-08-07T20:02:35.194Z,101015.34
2022-08-07T20:05:10.027Z,101017.59
2022-08-07T20:07:46.121Z,101013.91
2022-08-07T20:10:36.108Z,101021.81
2022-08-07T20:13:23.863Z,101027.09
2022-08-07T20:15:57.701Z,101023.84
2022-08-07T20:18:33.354Z,101032.69
2022-08-07T20:21:14.234Z,101034.09
2022-08-07T20:24:03.601Z,101026.09
2022-08-07T20:26:44.843Z,101027.50
2022-08-07T20:29:47.818Z,101034.59
2022-08-07T20:32:11.566Z,101039.94
2022-08-07T20:35:07.609Z,101042.09
2022-08-07T20:37:46.823Z,101040.13
2022-08-07T20:40:32.612Z,101034.16
2022-08-07T20:43:03.174Z,101037.81
2022-08-07T20:46:28.848Z,101030.03
2022-08-07T20:48:30.242Z,101030.88
2022-08-07T20:51:09.651Z,101031.56
2022-08-07T20:54:02.967Z,101034.78
2022-08-07T20:56:29.305Z,101025.94
2022-08-07T20:59:01.909Z,101027.03
2022-08-07T21:01:45.300Z,101021.91
2022-08-07T21:04:21.652Z,101020.22
2022-08-07T21:06:53.392Z,101016.84
2022-08-07T21:09:24.698Z,101010.88
2022-08-07T21:11:57.720Z,101011.28
2022-08-07T21:14:36.683Z,101014.13
2022-08-07T21:18:20.243Z,101008.81
2022-08-07T21:20:04.962Z,101006.22
2022-08-07T21:23:08.227Z,101009.28
2022-08-07T21:26:03.576Z,101016.56
2022-08-07T21:28:55.840Z,101006.34
2022-08-07T21:32:42.970Z,101008.09
2022-08-07T21:34:48.985Z,101002.75
2022-08-07T21:37:58.308Z,101010.38
2022-08-07T21:40:38.401Z,101005.91
2022-08-07T21:43:36.679Z,101007.91
2022-08-07T21:46:33.034Z,101006.19
2022-08-07T21:49:25.561Z,101001.50
2022-08-07T21:52:11.901Z,101010.13
2022-08-07T21:54:54.263Z,100999.66
2022-08-07T21:57:44.823Z,101005.25
2022-08-07T22:00:24.874Z,101001.78
2022-08-07T22:03:17.165Z,100997.53
2022-08-07T22:06:30.796Z,100999.09
2022-08-07T22:09:10.936Z,101002.75
2022-08-07T22:12:05.286Z,101002.00
2022-08-07T22:15:02.326Z,101000.28
2022-08-07T22:17:40.963Z,101004.13
2022-08-07T22:20:24.837Z,101003.38
2022-08-07T22:23:17.846Z,101016.88
2022-08-07T22:26:30.996Z,101013.47
2022-08-07T22:29:13.778Z,101014.66
2022-08-07T22:32:06.322Z,101016.47
2022-08-07T22:34:53.724Z,101022.22
2022-08-07T22:38:02.802Z,101019.34
2022-08-07T22:40:53.515Z,101019.88
2022-08-07T22:43:47.552Z,101026.06
2022-08-07T22:47:03.937Z,101026.78
2022-08-07T22:49:33.792Z,101027.28
2022-08-07T22:52:47.410Z,101024.91
2022-08-07T22:55:53.975Z,101029.34
2022-08-07T22:58:52.337Z,101025.09
2022-08-07T23:01:54.500Z,101031.09
2022-08-07T23:06:10.026Z,101029.56
2022-08-07T23:08:23.842Z,101025.78
2022-08-07T23:11:29.097Z,101025.66
2022-08-07T23:14:49.391Z,101032.13
2022-08-07T23:17:31.238Z,101029.16
2022-08-07T23:20:40.333Z,101024.00
2022-08-07T23:24:06.858Z,101028.97
2022-08-07T23:27:33.569Z,101024.53
2022-08-07T23:30:37.207Z,101019.56
2022-08-07T23:34:35.391Z,101030.50
2022-08-07T23:38:00.518Z,101033.75
2022-08-07T23:40:51.809Z,101027.28
2022-08-07T23:44:01.028Z,101028.50
2022-08-07T23:47:17.674Z,101026.19
2022-08-07T23:50:02.051Z,101021.69
2022-08-07T23:53:05.211Z,101027.78
2022-08-07T23:56:14.163Z,101026.53
